sensor_id;sensor_type;location;lat;lon;timestamp;pressure;altitude;pressure_sealevel;temperature;humidity
27958;BME280;15295;42.658;23.374;2023-02-11T05:27:49;96152.25;;;0.70;41.66
27958;BME280;15295;42.658;23.374;2023-02-11T06:29:24;96150.59;;;1.15;40.10
27958;BME280;15295;42.658;23.374;2023-02-11T06:31:51;96172.22;;;1.37;40.04
27958;BME280;15295;42.658;23.374;2023-02-11T06:34:28;96140.31;;;1.17;40.62
27958;BME280;15295;42.658;23.374;2023-02-11T06:36:53;96171.94;;;1.38;40.57
27958;BME280;15295;42.658;23.374;2023-02-11T06:39:19;96157.38;;;1.26;40.62
27958;BME280;15295;42.658;23.374;2023-02-11T06:42:08;96112.41;;;0.99;40.96
27958;BME280;15295;42.658;23.374;2023-02-11T07:15:44;96090.44;;;1.33;42.50
27958;BME280;15295;42.658;23.374;2023-02-11T07:18:12;96116.34;;;1.56;42.07
27958;BME280;15295;42.658;23.374;2023-02-11T07:20:42;96149.78;;;1.91;41.68
27958;BME280;15295;42.658;23.374;2023-02-11T07:25:52;96088.25;;;1.71;41.52
27958;BME280;15295;42.658;23.374;2023-02-11T07:28:33;96165.16;;;2.26;41.54
27958;BME280;15295;42.658;23.374;2023-02-11T07:36:12;96150.53;;;2.71;41.21
27958;BME280;15295;42.658;23.374;2023-02-11T07:38:39;96106.81;;;2.61;41.05
27958;BME280;15295;42.658;23.374;2023-02-11T07:41:12;96114.56;;;2.84;40.43
27958;BME280;15295;42.658;23.374;2023-02-11T07:54:31;96084.44;;;4.79;36.65
27958;BME280;15295;42.658;23.374;2023-02-11T08:02:44;96129.50;;;6.17;34.52
27958;BME280;15295;42.658;23.374;2023-02-11T08:05:11;96122.41;;;6.46;34.42
27958;BME280;15295;42.658;23.374;2023-02-11T08:07:52;96136.06;;;6.70;33.51
27958;BME280;15295;42.658;23.374;2023-02-11T08:10:18;96092.00;;;6.64;33.33
27958;BME280;15295;42.658;23.374;2023-02-11T08:12:44;96130.31;;;7.28;32.71
27958;BME280;15295;42.658;23.374;2023-02-11T08:15:09;96120.22;;;7.53;32.65
27958;BME280;15295;42.658;23.374;2023-02-11T08:17:35;96122.47;;;7.87;31.85
27958;BME280;15295;42.658;23.374;2023-02-11T08:20:03;96110.53;;;8.04;31.43
27958;BME280;15295;42.658;23.374;2023-02-11T08:22:33;96100.28;;;8.25;31.37
27958;BME280;15295;42.658;23.374;2023-02-11T08:25:01;96096.66;;;8.33;31.09
27958;BME280;15295;42.658;23.374;2023-02-11T08:27:27;96129.53;;;8.95;30.47
27958;BME280;15295;42.658;23.374;2023-02-11T08:29:53;96101.75;;;9.05;29.55
27958;BME280;15295;42.658;23.374;2023-02-11T08:32:24;96133.25;;;9.50;29.58
27958;BME280;15295;42.658;23.374;2023-02-11T08:34:51;96116.00;;;9.46;28.79
27958;BME280;15295;42.658;23.374;2023-02-11T08:37:18;96138.28;;;9.48;28.95
27958;BME280;15295;42.658;23.374;2023-02-11T08:39:49;96136.00;;;9.50;29.07
27958;BME280;15295;42.658;23.374;2023-02-11T08:52:40;96137.06;;;11.03;27.61
27958;BME280;15295;42.658;23.374;2023-02-11T08:55:16;96134.31;;;11.45;27.51
27958;BME280;15295;42.658;23.374;2023-02-11T08:57:47;96110.84;;;11.67;26.59
27958;BME280;15295;42.658;23.374;2023-02-11T09:00:16;96109.38;;;11.73;26.18
27958;BME280;15295;42.658;23.374;2023-02-11T09:02:43;96090.63;;;11.52;26.17
27958;BME280;15295;42.658;23.374;2023-02-11T09:05:33;96105.56;;;12.03;26.15
27958;BME280;15295;42.658;23.374;2023-02-11T09:08:05;96117.81;;;12.43;25.65
27958;BME280;15295;42.658;23.374;2023-02-11T09:10:32;96093.66;;;12.52;24.93
27958;BME280;15295;42.658;23.374;2023-02-11T09:12:58;96124.00;;;12.36;25.24
27958;BME280;15295;42.658;23.374;2023-02-11T09:15:44;96132.41;;;12.20;25.65
27958;BME280;15295;42.658;23.374;2023-02-11T09:18:17;96047.03;;;11.66;25.45
27958;BME280;15295;42.658;23.374;2023-02-11T09:23:47;96055.34;;;11.70;25.92
27958;BME280;15295;42.658;23.374;2023-02-11T10:36:06;95942.66;;;15.75;19.90
27958;BME280;15295;42.658;23.374;2023-02-11T10:41:43;95912.91;;;16.35;18.97
27958;BME280;15295;42.658;23.374;2023-02-11T10:44:30;95947.72;;;16.84;18.68
27958;BME280;15295;42.658;23.374;2023-02-11T10:47:11;95972.91;;;16.96;18.56
27958;BME280;15295;42.658;23.374;2023-02-11T10:49:44;95913.00;;;16.14;18.95
27958;BME280;15295;42.658;23.374;2023-02-11T10:52:21;95948.75;;;16.42;18.82
27958;BME280;15295;42.658;23.374;2023-02-11T10:55:20;95940.47;;;16.42;18.98
27958;BME280;15295;42.658;23.374;2023-02-11T10:57:54;95943.56;;;16.51;19.04
27958;BME280;15295;42.658;23.374;2023-02-11T11:00:41;95892.50;;;16.18;19.15
27958;BME280;15295;42.658;23.374;2023-02-11T11:03:50;95897.13;;;16.36;18.85
27958;BME280;15295;42.658;23.374;2023-02-11T11:06:35;95933.28;;;16.62;18.67
27958;BME280;15295;42.658;23.374;2023-02-11T11:09:28;95925.94;;;16.28;18.70
27958;BME280;15295;42.658;23.374;2023-02-11T11:12:25;95885.50;;;15.96;18.63
27958;BME280;15295;42.658;23.374;2023-02-11T11:15:23;95929.47;;;16.28;18.64
27958;BME280;15295;42.658;23.374;2023-02-11T11:18:35;95924.78;;;16.21;18.52
27958;BME280;15295;42.658;23.374;2023-02-11T11:21:04;95877.25;;;15.86;18.92
27958;BME280;15295;42.658;23.374;2023-02-11T11:23:57;95891.00;;;15.96;18.81
27958;BME280;15295;42.658;23.374;2023-02-11T11:26:49;95867.78;;;15.94;19.13
27958;BME280;15295;42.658;23.374;2023-02-11T11:29:55;95877.31;;;16.58;18.60
27958;BME280;15295;42.658;23.374;2023-02-11T11:32:26;95867.00;;;16.66;18.67
27958;BME280;15295;42.658;23.374;2023-02-11T11:34:59;95871.50;;;16.97;17.93
27958;BME280;15295;42.658;23.374;2023-02-11T11:37:36;95870.66;;;17.04;18.20
27958;BME280;15295;42.658;23.374;2023-02-11T11:40:21;95874.63;;;17.43;18.04
27958;BME280;15295;42.658;23.374;2023-02-11T11:43:17;95904.59;;;17.48;17.99
27958;BME280;15295;42.658;23.374;2023-02-11T11:45:58;95821.38;;;16.98;17.84
27958;BME280;15295;42.658;23.374;2023-02-11T11:48:27;95899.38;;;17.17;18.30
27958;BME280;15295;42.658;23.374;2023-02-11T11:51:05;95878.53;;;17.05;18.09
27958;BME280;15295;42.658;23.374;2023-02-11T11:57:03;95893.53;;;17.48;18.06
27958;BME280;15295;42.658;23.374;2023-02-11T11:59:41;95812.50;;;16.80;17.83
27958;BME280;15295;42.658;23.374;2023-02-11T12:02:42;95843.31;;;17.16;18.26
27958;BME280;15295;42.658;23.374;2023-02-11T12:05:54;95864.81;;;17.39;17.69
27958;BME280;15295;42.658;23.374;2023-02-11T12:11:14;95871.06;;;17.43;17.82
27958;BME280;15295;42.658;23.374;2023-02-11T12:14:06;95856.03;;;17.47;17.85
27958;BME280;15295;42.658;23.374;2023-02-11T12:17:02;95854.31;;;17.64;17.81
27958;BME280;15295;42.658;23.374;2023-02-11T12:34:48;95826.47;;;17.41;18.32
27958;BME280;15295;42.658;23.374;2023-02-11T12:43:23;95816.72;;;17.33;17.66
27958;BME280;15295;42.658;23.374;2023-02-11T12:54:55;95773.69;;;17.69;16.51
27958;BME280;15295;42.658;23.374;2023-02-11T12:57:25;95742.72;;;17.14;16.62
27958;BME280;15295;42.658;23.374;2023-02-11T13:03:30;95734.75;;;16.82;17.14
27958;BME280;15295;42.658;23.374;2023-02-11T13:06:04;95795.28;;;17.44;16.94
27958;BME280;15295;42.658;23.374;2023-02-11T13:08:39;95734.13;;;17.05;17.03
27958;BME280;15295;42.658;23.374;2023-02-11T13:11:42;95791.47;;;17.31;17.32
27958;BME280;15295;42.658;23.374;2023-02-11T13:14:36;95788.22;;;17.39;17.34
27958;BME280;15295;42.658;23.374;2023-02-11T13:21:08;95723.63;;;16.92;17.80
27958;BME280;15295;42.658;23.374;2023-02-11T13:23:54;95787.09;;;17.33;17.42
27958;BME280;15295;42.658;23.374;2023-02-11T13:35:29;95776.28;;;16.71;17.35
27958;BME280;15295;42.658;23.374;2023-02-11T13:38:28;95778.75;;;16.55;17.84
27958;BME280;15295;42.658;23.374;2023-02-11T13:41:22;95746.41;;;16.08;17.73
27958;BME280;15295;42.658;23.374;2023-02-11T13:44:22;95772.00;;;16.05;18.33
27958;BME280;15295;42.658;23.374;2023-02-11T13:47:28;95760.63;;;15.96;18.18
27958;BME280;15295;42.658;23.374;2023-02-11T13:50:07;95743.13;;;15.58;18.13
27958;BME280;15295;42.658;23.374;2023-02-11T13:52:59;95736.91;;;15.33;18.27
27958;BME280;15295;42.658;23.374;2023-02-11T13:55:34;95752.69;;;15.29;18.01
27958;BME280;15295;42.658;23.374;2023-02-11T13:59:03;95697.75;;;14.76;18.54
27958;BME280;15295;42.658;23.374;2023-02-11T14:08:21;95735.06;;;13.92;18.23
27958;BME280;15295;42.658;23.374;2023-02-11T14:14:19;95700.88;;;13.69;18.78
27958;BME280;15295;42.658;23.374;2023-02-11T14:17:16;95683.56;;;13.44;18.98
27958;BME280;15295;42.658;23.374;2023-02-11T14:20:38;95703.53;;;13.30;18.98
27958;BME280;15295;42.658;23.374;2023-02-11T14:23:23;95731.44;;;13.43;19.19
27958;BME280;15295;42.658;23.374;2023-02-11T14:26:04;95724.28;;;13.24;19.78
27958;BME280;15295;42.658;23.374;2023-02-11T14:28:57;95704.97;;;13.03;19.62
27958;BME280;15295;42.658;23.374;2023-02-11T14:32:01;95668.72;;;12.62;20.18
27958;BME280;15295;42.658;23.374;2023-02-11T14:55:52;95730.41;;;11.51;22.75
27958;BME280;15295;42.658;23.374;2023-02-11T14:58:35;95725.28;;;11.46;22.84
27958;BME280;15295;42.658;23.374;2023-02-11T15:01:31;95696.78;;;11.14;22.96
27958;BME280;15295;42.658;23.374;2023-02-11T15:04:04;95723.38;;;11.17;23.12
27958;BME280;15295;42.658;23.374;2023-02-11T15:06:37;95688.13;;;10.78;23.31
27958;BME280;15295;42.658;23.374;2023-02-11T15:11:50;95642.59;;;10.30;23.77
27958;BME280;15295;42.658;23.374;2023-02-11T15:14:33;95627.56;;;10.17;24.26
27958;BME280;15295;42.658;23.374;2023-02-11T15:17:11;95655.00;;;10.24;24.21
27958;BME280;15295;42.658;23.374;2023-02-11T15:19:59;95684.41;;;10.34;24.38
27958;BME280;15295;42.658;23.374;2023-02-11T15:22:34;95705.59;;;10.41;24.42
27958;BME280;15295;42.658;23.374;2023-02-11T15:25:13;95606.88;;;9.67;24.55
27958;BME280;15295;42.658;23.374;2023-02-11T15:27:52;95690.78;;;10.16;24.81
27958;BME280;15295;42.658;23.374;2023-02-11T15:30:32;95666.50;;;9.88;24.97
27958;BME280;15295;42.658;23.374;2023-02-11T15:33:26;95641.47;;;9.60;24.86
27958;BME280;15295;42.658;23.374;2023-02-11T15:36:02;95683.50;;;9.78;25.18
27958;BME280;15295;42.658;23.374;2023-02-11T15:39:35;95605.03;;;9.26;25.49
27958;BME280;15295;42.658;23.374;2023-02-11T15:41:39;95662.47;;;9.56;25.39
27958;BME280;15295;42.658;23.374;2023-02-11T15:44:28;95600.97;;;9.16;25.75
27958;BME280;15295;42.658;23.374;2023-02-11T15:46:57;95664.22;;;9.45;25.79
27958;BME280;15295;42.658;23.374;2023-02-11T15:49:56;95634.97;;;9.00;26.50
27958;BME280;15295;42.658;23.374;2023-02-11T15:52:25;95621.47;;;8.88;26.57
27958;BME280;15295;42.658;23.374;2023-02-11T15:54:58;95640.09;;;9.05;26.89
27958;BME280;15295;42.658;23.374;2023-02-11T15:58:18;95687.59;;;9.23;26.76
27958;BME280;15295;42.658;23.374;2023-02-11T16:01:15;95665.94;;;8.92;26.91
27958;BME280;15295;42.658;23.374;2023-02-11T16:03:49;95670.22;;;8.89;27.16
27958;BME280;15295;42.658;23.374;2023-02-11T16:12:22;95694.59;;;8.82;27.55
27958;BME280;15295;42.658;23.374;2023-02-11T16:15:29;95688.13;;;8.71;27.88
27958;BME280;15295;42.658;23.374;2023-02-11T16:18:43;95636.44;;;8.21;28.29
27958;BME280;15295;42.658;23.374;2023-02-11T16:21:29;95660.22;;;8.24;28.38
27958;BME280;15295;42.658;23.374;2023-02-11T16:24:37;95634.47;;;8.02;28.64
27958;BME280;15295;42.658;23.374;2023-02-11T16:27:34;95667.66;;;8.08;28.84
27958;BME280;15295;42.658;23.374;2023-02-11T16:35:42;95692.31;;;8.15;28.94
27958;BME280;15295;42.658;23.374;2023-02-11T16:38:31;95615.06;;;7.53;28.83
27958;BME280;15295;42.658;23.374;2023-02-11T16:41:13;95696.13;;;7.95;29.17
27958;BME280;15295;42.658;23.374;2023-02-11T16:43:46;95646.22;;;7.56;28.81
27958;BME280;15295;42.658;23.374;2023-02-11T16:46:27;95665.59;;;7.70;28.94
27958;BME280;15295;42.658;23.374;2023-02-11T16:48:54;95615.84;;;7.38;28.74
27958;BME280;15295;42.658;23.374;2023-02-11T16:54:12;95659.03;;;7.55;29.13
27958;BME280;15295;42.658;23.374;2023-02-11T16:56:43;95642.53;;;7.33;28.97
27958;BME280;15295;42.658;23.374;2023-02-11T16:59:23;95640.00;;;7.24;29.00
27958;BME280;15295;42.658;23.374;2023-02-11T17:04:33;95629.69;;;7.02;29.32
27958;BME280;15295;42.658;23.374;2023-02-11T17:07:09;95645.47;;;7.12;29.20
27958;BME280;15295;42.658;23.374;2023-02-11T17:09:38;95648.53;;;6.95;29.37
27958;BME280;15295;42.658;23.374;2023-02-11T17:14:55;95666.25;;;7.05;29.76
27958;BME280;15295;42.658;23.374;2023-02-11T17:17:32;95662.13;;;6.95;30.04
27958;BME280;15295;42.658;23.374;2023-02-11T17:20:10;95660.63;;;6.97;30.24
27958;BME280;15295;42.658;23.374;2023-02-11T17:22:36;95665.47;;;7.04;30.54
27958;BME280;15295;42.658;23.374;2023-02-11T17:25:14;95605.16;;;6.55;30.64
27958;BME280;15295;42.658;23.374;2023-02-11T17:28:31;95681.94;;;6.95;30.83
27958;BME280;15295;42.658;23.374;2023-02-11T17:31:39;95604.72;;;6.26;31.10
27958;BME280;15295;42.658;23.374;2023-02-11T17:34:16;95692.78;;;6.80;31.21
27958;BME280;15295;42.658;23.374;2023-02-11T17:36:43;95655.97;;;6.55;31.25
27958;BME280;15295;42.658;23.374;2023-02-11T17:44:49;95617.59;;;6.29;31.31
27958;BME280;15295;42.658;23.374;2023-02-11T17:47:22;95629.13;;;6.26;31.66
27958;BME280;15295;42.658;23.374;2023-02-11T17:50:05;95681.94;;;6.68;31.45
27958;BME280;15295;42.658;23.374;2023-02-11T17:52:36;95655.50;;;6.53;31.29
27958;BME280;15295;42.658;23.374;2023-02-11T17:55:09;95708.38;;;6.83;31.30
27958;BME280;15295;42.658;23.374;2023-02-11T17:57:35;95683.97;;;6.71;31.15
27958;BME280;15295;42.658;23.374;2023-02-11T18:00:08;95636.78;;;6.36;31.27
27958;BME280;15295;42.658;23.374;2023-02-11T18:02:38;95718.13;;;6.84;31.25
27958;BME280;15295;42.658;23.374;2023-02-11T18:05:12;95717.53;;;6.90;31.07
27958;BME280;15295;42.658;23.374;2023-02-11T18:07:41;95718.75;;;6.93;30.92
27958;BME280;15295;42.658;23.374;2023-02-11T18:10:19;95710.16;;;6.91;31.13
27958;BME280;15295;42.658;23.374;2023-02-11T18:13:09;95655.50;;;6.53;31.04
27958;BME280;15295;42.658;23.374;2023-02-11T18:16:01;95712.19;;;6.94;30.93
27958;BME280;15295;42.658;23.374;2023-02-11T18:18:29;95709.25;;;6.87;30.89
27958;BME280;15295;42.658;23.374;2023-02-11T18:21:03;95707.84;;;6.77;31.06
27958;BME280;15295;42.658;23.374;2023-02-11T18:23:33;95706.38;;;6.68;31.04
27958;BME280;15295;42.658;23.374;2023-02-11T18:26:09;95652.09;;;6.28;31.27
27958;BME280;15295;42.658;23.374;2023-02-11T18:28:37;95675.22;;;6.50;31.23
27958;BME280;15295;42.658;23.374;2023-02-11T18:31:20;95655.34;;;6.34;31.33
27958;BME280;15295;42.658;23.374;2023-02-11T18:34:13;95698.69;;;6.70;31.27
27958;BME280;15295;42.658;23.374;2023-02-11T18:36:41;95650.38;;;6.36;31.09
27958;BME280;15295;42.658;23.374;2023-02-11T18:39:08;95700.97;;;6.68;31.05
27958;BME280;15295;42.658;23.374;2023-02-11T18:41:45;95661.66;;;6.38;31.27
27958;BME280;15295;42.658;23.374;2023-02-11T18:44:20;95600.94;;;6.02;31.03
27958;BME280;15295;42.658;23.374;2023-02-11T18:46:54;95641.56;;;6.27;31.06
27958;BME280;15295;42.658;23.374;2023-02-11T18:49:25;95654.22;;;6.35;31.28
27958;BME280;15295;42.658;23.374;2023-02-11T18:52:03;95612.47;;;6.11;31.14
27958;BME280;15295;42.658;23.374;2023-02-11T18:54:33;95677.44;;;6.60;31.26
27958;BME280;15295;42.658;23.374;2023-02-11T18:57:01;95676.78;;;6.63;31.30
27958;BME280;15295;42.658;23.374;2023-02-11T18:59:30;95656.66;;;6.52;31.31
27958;BME280;15295;42.658;23.374;2023-02-11T19:02:07;95618.16;;;6.34;31.22
27958;BME280;15295;42.658;23.374;2023-02-11T19:04:34;95614.41;;;6.27;31.13
27958;BME280;15295;42.658;23.374;2023-02-11T19:07:07;95690.09;;;6.68;30.82
27958;BME280;15295;42.658;23.374;2023-02-11T19:09:53;95636.13;;;6.39;30.80
27958;BME280;15295;42.658;23.374;2023-02-11T19:12:31;95656.81;;;6.43;30.64
27958;BME280;15295;42.658;23.374;2023-02-11T19:15:09;95682.00;;;6.56;30.37
27958;BME280;15295;42.658;23.374;2023-02-11T19:18:08;95678.13;;;6.57;30.11
27958;BME280;15295;42.658;23.374;2023-02-11T19:20:38;95597.44;;;6.02;29.94
27958;BME280;15295;42.658;23.374;2023-02-11T19:23:16;95678.56;;;6.59;29.86
27958;BME280;15295;42.658;23.374;2023-02-11T19:25:47;95673.59;;;6.61;29.46
27958;BME280;15295;42.658;23.374;2023-02-11T19:28:23;95639.06;;;6.34;29.35
27958;BME280;15295;42.658;23.374;2023-02-11T19:31:11;95592.09;;;6.05;29.17
27958;BME280;15295;42.658;23.374;2023-02-11T19:33:40;95581.25;;;6.05;29.17
27958;BME280;15295;42.658;23.374;2023-02-11T19:36:31;95658.09;;;6.61;28.54
27958;BME280;15295;42.658;23.374;2023-02-11T19:39:41;95640.97;;;6.45;28.42
27958;BME280;15295;42.658;23.374;2023-02-11T19:42:22;95624.81;;;6.37;28.31
27958;BME280;15295;42.658;23.374;2023-02-11T19:44:51;95568.81;;;6.04;28.19
27958;BME280;15295;42.658;23.374;2023-02-11T19:47:55;95590.00;;;6.27;28.05
27958;BME280;15295;42.658;23.374;2023-02-11T19:50:44;95553.78;;;6.07;28.21
27958;BME280;15295;42.658;23.374;2023-02-11T19:53:45;95595.91;;;6.29;28.38
27958;BME280;15295;42.658;23.374;2023-02-11T19:56:18;95613.94;;;6.37;28.12
27958;BME280;15295;42.658;23.374;2023-02-11T19:58:52;95637.66;;;6.52;28.22
27958;BME280;15295;42.658;23.374;2023-02-11T20:01:32;95599.34;;;6.13;27.99
27958;BME280;15295;42.658;23.374;2023-02-11T20:09:57;95556.19;;;5.96;27.79
27958;BME280;15295;42.658;23.374;2023-02-11T20:12:26;95595.31;;;6.23;27.71
27958;BME280;15295;42.658;23.374;2023-02-11T20:15:22;95593.50;;;6.27;27.78
27958;BME280;15295;42.658;23.374;2023-02-11T20:18:21;95576.03;;;6.12;27.98
27958;BME280;15295;42.658;23.374;2023-02-11T20:21:38;95583.22;;;6.20;28.06
27958;BME280;15295;42.658;23.374;2023-02-11T20:24:40;95577.13;;;6.23;28.14
27958;BME280;15295;42.658;23.374;2023-02-11T20:27:25;95548.44;;;6.10;27.98
27958;BME280;15295;42.658;23.374;2023-02-11T20:30:06;95525.28;;;6.01;28.12
27958;BME280;15295;42.658;23.374;2023-02-11T20:32:58;95581.66;;;6.47;28.16
27958;BME280;15295;42.658;23.374;2023-02-11T20:35:25;95610.19;;;6.69;27.80
27958;BME280;15295;42.658;23.374;2023-02-11T20:37:53;95564.13;;;6.45;27.82
27958;BME280;15295;42.658;23.374;2023-02-11T20:50:50;95524.69;;;6.35;27.41
27958;BME280;15295;42.658;23.374;2023-02-11T20:53:41;95592.69;;;6.82;27.28
27958;BME280;15295;42.658;23.374;2023-02-11T20:59:02;95539.97;;;6.55;27.58
27958;BME280;15295;42.658;23.374;2023-02-11T21:02:01;95530.97;;;6.51;27.55
27958;BME280;15295;42.658;23.374;2023-02-11T21:04:38;95539.09;;;6.51;27.73
27958;BME280;15295;42.658;23.374;2023-02-11T21:07:07;95529.28;;;6.47;27.78
27958;BME280;15295;42.658;23.374;2023-02-11T21:09:47;95567.69;;;6.76;27.76
27958;BME280;15295;42.658;23.374;2023-02-11T21:12:39;95483.97;;;6.19;28.01
27958;BME280;15295;42.658;23.374;2023-02-11T21:15:45;95564.53;;;6.74;28.18
27958;BME280;15295;42.658;23.374;2023-02-11T21:18:21;95483.69;;;6.24;28.00
27958;BME280;15295;42.658;23.374;2023-02-11T21:20:53;95517.38;;;6.51;28.29
27958;BME280;15295;42.658;23.374;2023-02-11T21:23:36;95539.13;;;6.67;28.28
27958;BME280;15295;42.658;23.374;2023-02-11T21:26:24;95561.47;;;6.76;28.22
27958;BME280;15295;42.658;23.374;2023-02-11T21:29:26;95521.50;;;6.61;28.37
27958;BME280;15295;42.658;23.374;2023-02-11T21:31:58;95552.19;;;6.77;28.19
27958;BME280;15295;42.658;23.374;2023-02-11T21:35:03;95504.66;;;6.40;28.43
27958;BME280;15295;42.658;23.374;2023-02-11T21:40:51;95522.09;;;6.39;28.81
27958;BME280;15295;42.658;23.374;2023-02-11T21:52:20;95492.84;;;6.04;30.29
27958;BME280;15295;42.658;23.374;2023-02-11T22:26:47;95555.38;;;5.08;32.95
27958;BME280;15295;42.658;23.374;2023-02-11T23:39:15;95475.69;;;6.00;29.98
